sensor_id;sensor_type;location;lat;lon;timestamp;P1;durP1;ratioP1;P2;durP2;ratioP2
33485;SDS011;19824;52.098;5.004;2022-11-30T00:01:48;35.00;;;23.33;;
33485;SDS011;19824;52.098;5.004;2022-11-30T00:04:17;36.33;;;22.48;;
33485;SDS011;19824;52.098;5.004;2022-11-30T00:06:46;34.42;;;22.77;;
33485;SDS011;19824;52.098;5.004;2022-11-30T00:09:14;30.27;;;21.27;;
33485;SDS011;19824;52.098;5.004;2022-11-30T00:11:43;32.45;;;22.85;;
33485;SDS011;19824;52.098;5.004;2022-11-30T00:14:11;35.05;;;22.77;;
33485;SDS011;19824;52.098;5.004;2022-11-30T00:16:42;36.38;;;23.08;;
33485;SDS011;19824;52.098;5.004;2022-11-30T00:19:11;31.98;;;22.23;;
33485;SDS011;19824;52.098;5.004;2022-11-30T00:21:39;33.65;;;21.33;;
33485;SDS011;19824;52.098;5.004;2022-11-30T00:24:08;32.10;;;21.67;;
33485;SDS011;19824;52.098;5.004;2022-11-30T00:26:36;35.97;;;22.25;;
33485;SDS011;19824;52.098;5.004;2022-11-30T00:29:05;34.88;;;24.13;;
33485;SDS011;19824;52.098;5.004;2022-11-30T00:31:34;31.52;;;19.52;;
33485;SDS011;19824;52.098;5.004;2022-11-30T00:34:04;29.45;;;20.67;;
33485;SDS011;19824;52.098;5.004;2022-11-30T00:36:33;31.70;;;20.73;;
33485;SDS011;19824;52.098;5.004;2022-11-30T00:39:02;33.10;;;21.55;;
33485;SDS011;19824;52.098;5.004;2022-11-30T00:41:31;33.35;;;21.23;;
33485;SDS011;19824;52.098;5.004;2022-11-30T00:43:59;31.02;;;20.98;;
33485;SDS011;19824;52.098;5.004;2022-11-30T00:46:28;35.55;;;21.50;;
33485;SDS011;19824;52.098;5.004;2022-11-30T00:48:57;32.03;;;21.77;;
33485;SDS011;19824;52.098;5.004;2022-11-30T00:51:27;35.30;;;22.38;;
33485;SDS011;19824;52.098;5.004;2022-11-30T00:53:56;31.48;;;21.77;;
33485;SDS011;19824;52.098;5.004;2022-11-30T00:56:24;36.88;;;22.45;;
33485;SDS011;19824;52.098;5.004;2022-11-30T00:58:53;30.48;;;20.40;;
33485;SDS011;19824;52.098;5.004;2022-11-30T01:01:22;38.85;;;23.50;;
33485;SDS011;19824;52.098;5.004;2022-11-30T01:03:50;36.38;;;22.20;;
33485;SDS011;19824;52.098;5.004;2022-11-30T01:06:19;38.85;;;23.15;;
33485;SDS011;19824;52.098;5.004;2022-11-30T01:08:49;38.78;;;23.38;;
33485;SDS011;19824;52.098;5.004;2022-11-30T01:11:19;37.15;;;22.38;;
33485;SDS011;19824;52.098;5.004;2022-11-30T01:13:51;37.42;;;22.58;;
33485;SDS011;19824;52.098;5.004;2022-11-30T01:16:22;30.92;;;20.58;;
33485;SDS011;19824;52.098;5.004;2022-11-30T01:18:53;39.42;;;22.63;;
33485;SDS011;19824;52.098;5.004;2022-11-30T01:21:25;37.50;;;22.25;;
33485;SDS011;19824;52.098;5.004;2022-11-30T01:23:57;35.60;;;23.00;;
33485;SDS011;19824;52.098;5.004;2022-11-30T01:26:25;36.08;;;21.90;;
33485;SDS011;19824;52.098;5.004;2022-11-30T01:28:54;37.15;;;21.92;;
33485;SDS011;19824;52.098;5.004;2022-11-30T01:31:23;33.78;;;22.27;;
33485;SDS011;19824;52.098;5.004;2022-11-30T01:33:53;38.97;;;23.70;;
33485;SDS011;19824;52.098;5.004;2022-11-30T01:36:22;38.03;;;22.30;;
33485;SDS011;19824;52.098;5.004;2022-11-30T01:38:53;39.88;;;22.63;;
33485;SDS011;19824;52.098;5.004;2022-11-30T01:41:25;38.63;;;22.65;;
33485;SDS011;19824;52.098;5.004;2022-11-30T01:43:57;43.28;;;23.58;;
33485;SDS011;19824;52.098;5.004;2022-11-30T01:46:56;44.92;;;24.52;;
33485;SDS011;19824;52.098;5.004;2022-11-30T01:49:28;40.28;;;24.77;;
33485;SDS011;19824;52.098;5.004;2022-11-30T01:52:01;44.47;;;25.27;;
33485;SDS011;19824;52.098;5.004;2022-11-30T01:54:37;41.78;;;24.08;;
33485;SDS011;19824;52.098;5.004;2022-11-30T01:57:12;42.50;;;24.05;;
33485;SDS011;19824;52.098;5.004;2022-11-30T01:59:45;42.40;;;24.25;;
33485;SDS011;19824;52.098;5.004;2022-11-30T02:02:16;42.95;;;24.50;;
33485;SDS011;19824;52.098;5.004;2022-11-30T02:04:53;39.60;;;24.52;;
33485;SDS011;19824;52.098;5.004;2022-11-30T02:07:22;41.92;;;24.90;;
33485;SDS011;19824;52.098;5.004;2022-11-30T02:09:52;41.83;;;23.40;;
33485;SDS011;19824;52.098;5.004;2022-11-30T02:12:22;50.17;;;26.48;;
33485;SDS011;19824;52.098;5.004;2022-11-30T02:15:00;42.83;;;24.38;;
33485;SDS011;19824;52.098;5.004;2022-11-30T02:17:37;43.30;;;24.83;;
33485;SDS011;19824;52.098;5.004;2022-11-30T02:20:31;41.30;;;24.30;;
33485;SDS011;19824;52.098;5.004;2022-11-30T02:26:38;46.05;;;25.10;;
33485;SDS011;19824;52.098;5.004;2022-11-30T02:29:32;38.13;;;23.92;;
33485;SDS011;19824;52.098;5.004;2022-11-30T02:32:05;48.35;;;24.40;;
33485;SDS011;19824;52.098;5.004;2022-11-30T02:34:39;53.45;;;25.95;;
33485;SDS011;19824;52.098;5.004;2022-11-30T02:37:09;47.45;;;25.25;;
33485;SDS011;19824;52.098;5.004;2022-11-30T02:39:41;41.15;;;23.63;;
33485;SDS011;19824;52.098;5.004;2022-11-30T02:42:10;38.75;;;22.85;;
33485;SDS011;19824;52.098;5.004;2022-11-30T02:44:42;40.05;;;22.58;;
33485;SDS011;19824;52.098;5.004;2022-11-30T02:47:17;41.55;;;22.92;;
33485;SDS011;19824;52.098;5.004;2022-11-30T02:49:53;44.70;;;23.45;;
33485;SDS011;19824;52.098;5.004;2022-11-30T02:52:27;42.33;;;23.75;;
33485;SDS011;19824;52.098;5.004;2022-11-30T02:54:58;42.05;;;23.73;;
33485;SDS011;19824;52.098;5.004;2022-11-30T02:57:28;43.40;;;24.33;;
33485;SDS011;19824;52.098;5.004;2022-11-30T02:59:59;48.45;;;24.77;;
33485;SDS011;19824;52.098;5.004;2022-11-30T03:02:33;47.75;;;25.35;;
33485;SDS011;19824;52.098;5.004;2022-11-30T03:05:02;47.13;;;24.45;;
33485;SDS011;19824;52.098;5.004;2022-11-30T03:07:32;41.72;;;23.13;;
33485;SDS011;19824;52.098;5.004;2022-11-30T03:10:00;48.75;;;25.00;;
33485;SDS011;19824;52.098;5.004;2022-11-30T03:12:31;53.50;;;25.23;;
33485;SDS011;19824;52.098;5.004;2022-11-30T03:15:01;48.63;;;24.67;;
33485;SDS011;19824;52.098;5.004;2022-11-30T03:17:30;39.97;;;22.88;;
33485;SDS011;19824;52.098;5.004;2022-11-30T03:19:59;52.80;;;26.38;;
33485;SDS011;19824;52.098;5.004;2022-11-30T03:22:29;56.75;;;26.30;;
33485;SDS011;19824;52.098;5.004;2022-11-30T03:24:57;58.70;;;26.45;;
33485;SDS011;19824;52.098;5.004;2022-11-30T03:27:26;47.65;;;24.80;;
33485;SDS011;19824;52.098;5.004;2022-11-30T03:29:54;44.17;;;24.00;;
33485;SDS011;19824;52.098;5.004;2022-11-30T03:32:25;46.40;;;24.52;;
33485;SDS011;19824;52.098;5.004;2022-11-30T03:34:55;41.15;;;23.13;;
33485;SDS011;19824;52.098;5.004;2022-11-30T03:37:24;52.75;;;26.23;;
33485;SDS011;19824;52.098;5.004;2022-11-30T03:39:52;51.95;;;26.02;;
33485;SDS011;19824;52.098;5.004;2022-11-30T03:42:23;54.53;;;26.73;;
33485;SDS011;19824;52.098;5.004;2022-11-30T03:44:52;49.10;;;25.60;;
33485;SDS011;19824;52.098;5.004;2022-11-30T03:47:21;44.40;;;24.52;;
33485;SDS011;19824;52.098;5.004;2022-11-30T03:49:51;54.85;;;27.58;;
33485;SDS011;19824;52.098;5.004;2022-11-30T03:52:20;48.67;;;26.30;;
33485;SDS011;19824;52.098;5.004;2022-11-30T03:54:48;54.53;;;27.17;;
33485;SDS011;19824;52.098;5.004;2022-11-30T03:57:17;55.65;;;27.50;;
33485;SDS011;19824;52.098;5.004;2022-11-30T03:59:46;50.95;;;26.40;;
33485;SDS011;19824;52.098;5.004;2022-11-30T04:02:14;58.78;;;26.80;;
33485;SDS011;19824;52.098;5.004;2022-11-30T04:04:43;50.08;;;24.92;;
33485;SDS011;19824;52.098;5.004;2022-11-30T04:07:14;46.10;;;24.80;;
33485;SDS011;19824;52.098;5.004;2022-11-30T04:09:43;45.83;;;25.50;;
33485;SDS011;19824;52.098;5.004;2022-11-30T04:12:11;50.08;;;26.60;;
33485;SDS011;19824;52.098;5.004;2022-11-30T04:14:40;54.50;;;26.95;;
33485;SDS011;19824;52.098;5.004;2022-11-30T04:17:08;53.60;;;27.25;;
33485;SDS011;19824;52.098;5.004;2022-11-30T04:19:37;55.92;;;26.88;;
33485;SDS011;19824;52.098;5.004;2022-11-30T04:22:06;41.88;;;23.33;;
33485;SDS011;19824;52.098;5.004;2022-11-30T04:24:36;54.60;;;27.13;;
33485;SDS011;19824;52.098;5.004;2022-11-30T04:27:05;55.97;;;26.85;;
33485;SDS011;19824;52.098;5.004;2022-11-30T04:29:33;56.85;;;27.15;;
33485;SDS011;19824;52.098;5.004;2022-11-30T04:32:02;60.38;;;27.45;;
33485;SDS011;19824;52.098;5.004;2022-11-30T04:34:31;54.17;;;28.08;;
33485;SDS011;19824;52.098;5.004;2022-11-30T04:36:59;56.72;;;27.42;;
33485;SDS011;19824;52.098;5.004;2022-11-30T04:39:28;61.33;;;28.13;;
33485;SDS011;19824;52.098;5.004;2022-11-30T04:42:02;60.70;;;28.55;;
33485;SDS011;19824;52.098;5.004;2022-11-30T04:44:31;63.83;;;28.10;;
33485;SDS011;19824;52.098;5.004;2022-11-30T04:46:59;72.85;;;30.00;;
33485;SDS011;19824;52.098;5.004;2022-11-30T04:49:28;63.20;;;28.48;;
33485;SDS011;19824;52.098;5.004;2022-11-30T04:51:56;53.25;;;26.98;;
33485;SDS011;19824;52.098;5.004;2022-11-30T04:54:25;57.70;;;27.83;;
33485;SDS011;19824;52.098;5.004;2022-11-30T04:56:54;59.47;;;27.77;;
33485;SDS011;19824;52.098;5.004;2022-11-30T04:59:24;58.58;;;28.23;;
33485;SDS011;19824;52.098;5.004;2022-11-30T05:01:53;54.33;;;25.83;;
33485;SDS011;19824;52.098;5.004;2022-11-30T05:04:22;57.22;;;28.33;;
33485;SDS011;19824;52.098;5.004;2022-11-30T05:06:50;58.17;;;27.73;;
33485;SDS011;19824;52.098;5.004;2022-11-30T05:09:19;64.13;;;29.15;;
33485;SDS011;19824;52.098;5.004;2022-11-30T05:11:47;70.28;;;29.35;;
33485;SDS011;19824;52.098;5.004;2022-11-30T05:14:16;55.53;;;27.13;;
33485;SDS011;19824;52.098;5.004;2022-11-30T05:16:47;72.45;;;30.20;;
33485;SDS011;19824;52.098;5.004;2022-11-30T05:19:16;71.85;;;31.23;;
33485;SDS011;19824;52.098;5.004;2022-11-30T05:21:45;73.25;;;31.38;;
33485;SDS011;19824;52.098;5.004;2022-11-30T05:24:14;71.95;;;29.75;;
33485;SDS011;19824;52.098;5.004;2022-11-30T05:26:43;68.65;;;30.58;;
33485;SDS011;19824;52.098;5.004;2022-11-30T05:29:11;68.50;;;30.92;;
33485;SDS011;19824;52.098;5.004;2022-11-30T05:31:40;65.13;;;30.70;;
33485;SDS011;19824;52.098;5.004;2022-11-30T05:34:11;58.60;;;27.88;;
33485;SDS011;19824;52.098;5.004;2022-11-30T05:36:40;68.35;;;30.27;;
33485;SDS011;19824;52.098;5.004;2022-11-30T05:39:08;67.90;;;29.30;;
33485;SDS011;19824;52.098;5.004;2022-11-30T05:41:37;103.45;;;34.63;;
33485;SDS011;19824;52.098;5.004;2022-11-30T05:44:07;89.88;;;33.15;;
33485;SDS011;19824;52.098;5.004;2022-11-30T05:46:36;77.68;;;31.42;;
33485;SDS011;19824;52.098;5.004;2022-11-30T05:49:06;82.72;;;32.25;;
33485;SDS011;19824;52.098;5.004;2022-11-30T05:51:37;67.70;;;30.90;;
33485;SDS011;19824;52.098;5.004;2022-11-30T05:54:07;65.95;;;29.00;;
33485;SDS011;19824;52.098;5.004;2022-11-30T05:56:35;83.30;;;32.45;;
33485;SDS011;19824;52.098;5.004;2022-11-30T05:59:04;92.03;;;32.22;;
33485;SDS011;19824;52.098;5.004;2022-11-30T06:01:33;81.60;;;31.08;;
33485;SDS011;19824;52.098;5.004;2022-11-30T06:04:03;86.68;;;32.83;;
33485;SDS011;19824;52.098;5.004;2022-11-30T06:06:34;85.00;;;33.17;;
33485;SDS011;19824;52.098;5.004;2022-11-30T06:09:04;81.38;;;31.00;;
33485;SDS011;19824;52.098;5.004;2022-11-30T06:11:33;83.88;;;31.80;;
33485;SDS011;19824;52.098;5.004;2022-11-30T06:14:05;98.43;;;33.88;;
33485;SDS011;19824;52.098;5.004;2022-11-30T06:16:33;97.93;;;33.08;;
33485;SDS011;19824;52.098;5.004;2022-11-30T06:19:05;102.50;;;34.72;;
33485;SDS011;19824;52.098;5.004;2022-11-30T06:21:34;97.22;;;35.30;;
33485;SDS011;19824;52.098;5.004;2022-11-30T06:24:05;106.35;;;36.15;;
33485;SDS011;19824;52.098;5.004;2022-11-30T06:26:35;87.55;;;33.05;;
33485;SDS011;19824;52.098;5.004;2022-11-30T06:29:04;91.45;;;33.03;;
33485;SDS011;19824;52.098;5.004;2022-11-30T06:31:33;116.68;;;35.45;;
33485;SDS011;19824;52.098;5.004;2022-11-30T06:34:01;104.30;;;35.78;;
33485;SDS011;19824;52.098;5.004;2022-11-30T06:36:30;121.50;;;35.40;;
33485;SDS011;19824;52.098;5.004;2022-11-30T06:39:02;97.55;;;32.90;;
33485;SDS011;19824;52.098;5.004;2022-11-30T06:41:33;99.30;;;34.60;;
33485;SDS011;19824;52.098;5.004;2022-11-30T06:44:06;83.88;;;33.38;;
33485;SDS011;19824;52.098;5.004;2022-11-30T06:46:35;91.70;;;35.50;;
33485;SDS011;19824;52.098;5.004;2022-11-30T06:49:03;91.50;;;34.00;;
33485;SDS011;19824;52.098;5.004;2022-11-30T06:51:32;92.85;;;34.60;;
33485;SDS011;19824;52.098;5.004;2022-11-30T06:54:02;79.05;;;33.00;;
33485;SDS011;19824;52.098;5.004;2022-11-30T06:56:33;97.95;;;36.13;;
33485;SDS011;19824;52.098;5.004;2022-11-30T06:59:01;90.00;;;33.90;;
33485;SDS011;19824;52.098;5.004;2022-11-30T07:01:30;82.45;;;33.55;;
33485;SDS011;19824;52.098;5.004;2022-11-30T07:03:59;66.00;;;30.73;;
33485;SDS011;19824;52.098;5.004;2022-11-30T07:06:27;81.68;;;33.15;;
33485;SDS011;19824;52.098;5.004;2022-11-30T07:08:56;77.93;;;31.30;;
33485;SDS011;19824;52.098;5.004;2022-11-30T07:11:25;66.53;;;30.13;;
33485;SDS011;19824;52.098;5.004;2022-11-30T07:13:55;70.80;;;31.58;;
33485;SDS011;19824;52.098;5.004;2022-11-30T07:16:24;95.78;;;34.22;;
33485;SDS011;19824;52.098;5.004;2022-11-30T07:18:53;95.47;;;34.05;;
33485;SDS011;19824;52.098;5.004;2022-11-30T07:21:21;103.97;;;32.95;;
33485;SDS011;19824;52.098;5.004;2022-11-30T07:23:50;71.85;;;30.67;;
33485;SDS011;19824;52.098;5.004;2022-11-30T07:26:35;86.03;;;32.78;;
33485;SDS011;19824;52.098;5.004;2022-11-30T07:29:08;68.28;;;29.63;;
33485;SDS011;19824;52.098;5.004;2022-11-30T07:31:39;85.63;;;32.78;;
33485;SDS011;19824;52.098;5.004;2022-11-30T07:34:08;87.88;;;31.42;;
33485;SDS011;19824;52.098;5.004;2022-11-30T07:36:37;72.65;;;30.02;;
33485;SDS011;19824;52.098;5.004;2022-11-30T07:39:06;77.90;;;31.52;;
33485;SDS011;19824;52.098;5.004;2022-11-30T07:41:39;66.45;;;29.45;;
33485;SDS011;19824;52.098;5.004;2022-11-30T07:44:11;65.10;;;29.30;;
33485;SDS011;19824;52.098;5.004;2022-11-30T07:46:39;81.38;;;31.65;;
33485;SDS011;19824;52.098;5.004;2022-11-30T07:49:09;90.95;;;32.40;;
33485;SDS011;19824;52.098;5.004;2022-11-30T07:51:38;99.38;;;34.42;;
33485;SDS011;19824;52.098;5.004;2022-11-30T07:54:06;69.97;;;30.35;;
33485;SDS011;19824;52.098;5.004;2022-11-30T07:56:35;79.20;;;32.45;;
33485;SDS011;19824;52.098;5.004;2022-11-30T07:59:04;77.85;;;32.47;;
33485;SDS011;19824;52.098;5.004;2022-11-30T08:01:34;63.72;;;30.40;;
33485;SDS011;19824;52.098;5.004;2022-11-30T08:04:03;80.93;;;31.58;;
33485;SDS011;19824;52.098;5.004;2022-11-30T08:06:32;76.63;;;32.42;;
33485;SDS011;19824;52.098;5.004;2022-11-30T08:09:02;93.93;;;33.97;;
33485;SDS011;19824;52.098;5.004;2022-11-30T08:11:32;86.18;;;33.75;;
33485;SDS011;19824;52.098;5.004;2022-11-30T08:14:02;103.90;;;34.33;;
33485;SDS011;19824;52.098;5.004;2022-11-30T08:16:35;98.13;;;35.15;;
33485;SDS011;19824;52.098;5.004;2022-11-30T08:19:04;90.35;;;32.55;;
33485;SDS011;19824;52.098;5.004;2022-11-30T08:21:33;67.95;;;29.95;;
33485;SDS011;19824;52.098;5.004;2022-11-30T08:24:02;90.43;;;33.75;;
33485;SDS011;19824;52.098;5.004;2022-11-30T08:26:32;82.57;;;31.05;;
33485;SDS011;19824;52.098;5.004;2022-11-30T08:29:01;72.05;;;30.52;;
33485;SDS011;19824;52.098;5.004;2022-11-30T08:31:30;67.90;;;29.42;;
33485;SDS011;19824;52.098;5.004;2022-11-30T08:34:03;83.35;;;32.17;;
33485;SDS011;19824;52.098;5.004;2022-11-30T08:36:34;72.68;;;30.92;;
33485;SDS011;19824;52.098;5.004;2022-11-30T08:39:03;88.05;;;32.85;;
33485;SDS011;19824;52.098;5.004;2022-11-30T08:41:34;80.72;;;32.58;;
33485;SDS011;19824;52.098;5.004;2022-11-30T08:44:03;85.93;;;34.10;;
33485;SDS011;19824;52.098;5.004;2022-11-30T08:46:33;74.15;;;32.92;;
33485;SDS011;19824;52.098;5.004;2022-11-30T08:49:21;66.97;;;31.90;;
33485;SDS011;19824;52.098;5.004;2022-11-30T08:51:51;70.22;;;31.83;;
33485;SDS011;19824;52.098;5.004;2022-11-30T08:54:42;65.60;;;30.77;;
33485;SDS011;19824;52.098;5.004;2022-11-30T08:57:13;61.00;;;29.25;;
33485;SDS011;19824;52.098;5.004;2022-11-30T08:59:43;70.80;;;31.10;;
33485;SDS011;19824;52.098;5.004;2022-11-30T09:02:12;74.43;;;31.55;;
33485;SDS011;19824;52.098;5.004;2022-11-30T09:04:46;62.50;;;30.38;;
33485;SDS011;19824;52.098;5.004;2022-11-30T09:07:16;68.47;;;31.05;;
33485;SDS011;19824;52.098;5.004;2022-11-30T09:09:45;64.40;;;30.38;;
33485;SDS011;19824;52.098;5.004;2022-11-30T09:12:14;63.00;;;28.90;;
33485;SDS011;19824;52.098;5.004;2022-11-30T09:14:43;61.65;;;30.00;;
33485;SDS011;19824;52.098;5.004;2022-11-30T09:17:19;64.93;;;29.58;;
33485;SDS011;19824;52.098;5.004;2022-11-30T09:19:49;61.25;;;28.83;;
33485;SDS011;19824;52.098;5.004;2022-11-30T09:22:19;74.40;;;31.65;;
33485;SDS011;19824;52.098;5.004;2022-11-30T09:24:48;68.85;;;31.55;;
33485;SDS011;19824;52.098;5.004;2022-11-30T09:27:16;61.53;;;29.13;;
33485;SDS011;19824;52.098;5.004;2022-11-30T09:29:45;61.40;;;30.73;;
33485;SDS011;19824;52.098;5.004;2022-11-30T09:32:14;56.97;;;29.23;;
33485;SDS011;19824;52.098;5.004;2022-11-30T09:34:42;53.97;;;28.98;;
33485;SDS011;19824;52.098;5.004;2022-11-30T09:37:13;50.97;;;28.10;;
33485;SDS011;19824;52.098;5.004;2022-11-30T09:39:42;59.75;;;29.90;;
33485;SDS011;19824;52.098;5.004;2022-11-30T09:45:11;52.65;;;27.95;;
33485;SDS011;19824;52.098;5.004;2022-11-30T09:47:51;56.35;;;28.73;;
33485;SDS011;19824;52.098;5.004;2022-11-30T09:50:36;55.72;;;28.52;;
33485;SDS011;19824;52.098;5.004;2022-11-30T09:53:13;56.72;;;28.85;;
33485;SDS011;19824;52.098;5.004;2022-11-30T09:55:54;51.80;;;28.10;;
33485;SDS011;19824;52.098;5.004;2022-11-30T09:58:27;51.70;;;28.20;;
33485;SDS011;19824;52.098;5.004;2022-11-30T10:01:07;52.97;;;27.73;;
33485;SDS011;19824;52.098;5.004;2022-11-30T10:03:44;51.40;;;28.95;;
33485;SDS011;19824;52.098;5.004;2022-11-30T10:06:15;46.45;;;27.23;;
33485;SDS011;19824;52.098;5.004;2022-11-30T10:08:58;50.58;;;27.95;;
33485;SDS011;19824;52.098;5.004;2022-11-30T10:11:59;49.10;;;26.95;;
33485;SDS011;19824;52.098;5.004;2022-11-30T10:14:42;49.35;;;28.88;;
33485;SDS011;19824;52.098;5.004;2022-11-30T10:17:33;42.30;;;25.80;;
33485;SDS011;19824;52.098;5.004;2022-11-30T10:20:16;42.22;;;25.88;;
33485;SDS011;19824;52.098;5.004;2022-11-30T10:23:07;45.85;;;27.27;;
33485;SDS011;19824;52.098;5.004;2022-11-30T10:25:55;44.25;;;26.42;;
33485;SDS011;19824;52.098;5.004;2022-11-30T10:28:29;40.80;;;25.67;;
33485;SDS011;19824;52.098;5.004;2022-11-30T10:31:13;44.30;;;26.42;;
33485;SDS011;19824;52.098;5.004;2022-11-30T10:33:44;45.38;;;27.70;;
33485;SDS011;19824;52.098;5.004;2022-11-30T10:36:25;43.85;;;25.73;;
33485;SDS011;19824;52.098;5.004;2022-11-30T10:39:13;43.17;;;26.05;;
33485;SDS011;19824;52.098;5.004;2022-11-30T10:41:49;42.22;;;26.70;;
33485;SDS011;19824;52.098;5.004;2022-11-30T10:44:23;43.40;;;26.88;;
33485;SDS011;19824;52.098;5.004;2022-11-30T10:46:57;40.42;;;26.05;;
33485;SDS011;19824;52.098;5.004;2022-11-30T10:49:29;41.42;;;26.48;;
33485;SDS011;19824;52.098;5.004;2022-11-30T10:52:00;39.40;;;25.38;;
33485;SDS011;19824;52.098;5.004;2022-11-30T10:54:33;43.72;;;26.42;;
33485;SDS011;19824;52.098;5.004;2022-11-30T10:57:05;40.95;;;25.98;;
33485;SDS011;19824;52.098;5.004;2022-11-30T10:59:37;36.53;;;25.27;;
33485;SDS011;19824;52.098;5.004;2022-11-30T11:05:08;35.85;;;24.15;;
33485;SDS011;19824;52.098;5.004;2022-11-30T11:07:47;36.50;;;25.65;;
33485;SDS011;19824;52.098;5.004;2022-11-30T11:10:28;37.00;;;25.25;;
33485;SDS011;19824;52.098;5.004;2022-11-30T11:13:03;39.63;;;25.50;;
33485;SDS011;19824;52.098;5.004;2022-11-30T11:15:32;35.88;;;24.88;;
33485;SDS011;19824;52.098;5.004;2022-11-30T11:18:18;37.47;;;26.25;;
33485;SDS011;19824;52.098;5.004;2022-11-30T11:21:01;34.20;;;24.27;;
33485;SDS011;19824;52.098;5.004;2022-11-30T11:23:33;34.13;;;24.60;;
33485;SDS011;19824;52.098;5.004;2022-11-30T11:26:05;36.92;;;24.55;;
33485;SDS011;19824;52.098;5.004;2022-11-30T11:28:44;36.60;;;24.92;;
33485;SDS011;19824;52.098;5.004;2022-11-30T11:31:16;38.25;;;25.48;;
33485;SDS011;19824;52.098;5.004;2022-11-30T11:34:00;41.15;;;25.70;;
33485;SDS011;19824;52.098;5.004;2022-11-30T11:36:29;38.72;;;26.42;;
33485;SDS011;19824;52.098;5.004;2022-11-30T11:39:01;36.10;;;24.90;;
33485;SDS011;19824;52.098;5.004;2022-11-30T11:41:50;36.75;;;25.73;;
33485;SDS011;19824;52.098;5.004;2022-11-30T11:44:21;36.47;;;25.83;;
33485;SDS011;19824;52.098;5.004;2022-11-30T11:46:53;38.75;;;26.52;;
33485;SDS011;19824;52.098;5.004;2022-11-30T11:49:25;37.58;;;25.30;;
33485;SDS011;19824;52.098;5.004;2022-11-30T11:51:58;37.28;;;25.40;;
33485;SDS011;19824;52.098;5.004;2022-11-30T11:54:29;38.22;;;25.80;;
33485;SDS011;19824;52.098;5.004;2022-11-30T11:57:03;38.35;;;25.80;;
33485;SDS011;19824;52.098;5.004;2022-11-30T11:59:41;33.80;;;24.88;;
33485;SDS011;19824;52.098;5.004;2022-11-30T12:02:20;33.83;;;24.85;;
33485;SDS011;19824;52.098;5.004;2022-11-30T12:05:02;34.05;;;24.60;;
33485;SDS011;19824;52.098;5.004;2022-11-30T12:07:37;32.53;;;24.83;;
33485;SDS011;19824;52.098;5.004;2022-11-30T12:10:18;37.78;;;26.17;;
33485;SDS011;19824;52.098;5.004;2022-11-30T12:13:16;37.88;;;26.42;;
33485;SDS011;19824;52.098;5.004;2022-11-30T12:15:55;36.78;;;26.00;;
33485;SDS011;19824;52.098;5.004;2022-11-30T12:18:36;38.65;;;26.88;;
33485;SDS011;19824;52.098;5.004;2022-11-30T12:21:20;38.53;;;26.45;;
33485;SDS011;19824;52.098;5.004;2022-11-30T12:24:10;38.47;;;26.30;;
33485;SDS011;19824;52.098;5.004;2022-11-30T12:27:02;43.20;;;28.13;;
33485;SDS011;19824;52.098;5.004;2022-11-30T12:29:44;39.97;;;26.77;;
33485;SDS011;19824;52.098;5.004;2022-11-30T12:32:29;37.83;;;26.13;;
33485;SDS011;19824;52.098;5.004;2022-11-30T12:35:19;36.33;;;24.45;;
33485;SDS011;19824;52.098;5.004;2022-11-30T12:38:03;35.28;;;24.33;;
33485;SDS011;19824;52.098;5.004;2022-11-30T12:40:47;31.27;;;22.10;;
33485;SDS011;19824;52.098;5.004;2022-11-30T12:43:25;33.55;;;22.33;;
33485;SDS011;19824;52.098;5.004;2022-11-30T12:46:07;36.45;;;23.67;;
33485;SDS011;19824;52.098;5.004;2022-11-30T12:48:50;39.75;;;24.80;;
33485;SDS011;19824;52.098;5.004;2022-11-30T12:51:35;36.05;;;24.05;;
33485;SDS011;19824;52.098;5.004;2022-11-30T12:54:11;37.92;;;25.00;;
33485;SDS011;19824;52.098;5.004;2022-11-30T12:56:50;41.92;;;27.48;;
33485;SDS011;19824;52.098;5.004;2022-11-30T12:59:25;41.40;;;26.88;;
33485;SDS011;19824;52.098;5.004;2022-11-30T13:02:11;40.53;;;26.35;;
33485;SDS011;19824;52.098;5.004;2022-11-30T13:05:05;39.80;;;25.77;;
33485;SDS011;19824;52.098;5.004;2022-11-30T13:07:38;45.55;;;27.00;;
33485;SDS011;19824;52.098;5.004;2022-11-30T13:10:15;38.47;;;25.52;;
33485;SDS011;19824;52.098;5.004;2022-11-30T13:12:51;38.25;;;25.55;;
33485;SDS011;19824;52.098;5.004;2022-11-30T13:15:23;39.13;;;25.55;;
33485;SDS011;19824;52.098;5.004;2022-11-30T13:17:55;37.05;;;24.65;;
33485;SDS011;19824;52.098;5.004;2022-11-30T13:20:31;40.72;;;25.95;;
33485;SDS011;19824;52.098;5.004;2022-11-30T13:23:07;37.78;;;25.23;;
33485;SDS011;19824;52.098;5.004;2022-11-30T13:25:41;37.60;;;25.35;;
33485;SDS011;19824;52.098;5.004;2022-11-30T13:28:41;39.85;;;26.05;;
33485;SDS011;19824;52.098;5.004;2022-11-30T13:31:26;38.33;;;25.45;;
33485;SDS011;19824;52.098;5.004;2022-11-30T13:34:02;41.40;;;26.60;;
33485;SDS011;19824;52.098;5.004;2022-11-30T13:36:34;40.13;;;25.90;;
33485;SDS011;19824;52.098;5.004;2022-11-30T13:39:09;44.25;;;27.70;;
33485;SDS011;19824;52.098;5.004;2022-11-30T13:41:50;42.60;;;26.85;;
33485;SDS011;19824;52.098;5.004;2022-11-30T13:48:16;45.65;;;28.08;;
33485;SDS011;19824;52.098;5.004;2022-11-30T13:50:58;45.83;;;27.65;;
33485;SDS011;19824;52.098;5.004;2022-11-30T13:53:29;46.40;;;28.67;;
33485;SDS011;19824;52.098;5.004;2022-11-30T13:56:01;45.63;;;29.08;;
33485;SDS011;19824;52.098;5.004;2022-11-30T14:04:32;45.63;;;28.70;;
33485;SDS011;19824;52.098;5.004;2022-11-30T14:10:02;48.40;;;30.10;;
33485;SDS011;19824;52.098;5.004;2022-11-30T14:13:00;47.63;;;29.40;;
33485;SDS011;19824;52.098;5.004;2022-11-30T14:21:15;50.10;;;30.65;;
33485;SDS011;19824;52.098;5.004;2022-11-30T14:23:52;47.65;;;29.02;;
33485;SDS011;19824;52.098;5.004;2022-11-30T14:26:29;49.72;;;29.75;;
33485;SDS011;19824;52.098;5.004;2022-11-30T14:29:08;45.35;;;29.23;;
33485;SDS011;19824;52.098;5.004;2022-11-30T14:31:48;48.40;;;27.88;;
33485;SDS011;19824;52.098;5.004;2022-11-30T14:34:23;49.75;;;29.58;;
33485;SDS011;19824;52.098;5.004;2022-11-30T14:36:58;53.95;;;31.13;;
33485;SDS011;19824;52.098;5.004;2022-11-30T14:39:31;48.05;;;29.33;;
33485;SDS011;19824;52.098;5.004;2022-11-30T14:42:14;47.90;;;29.20;;
33485;SDS011;19824;52.098;5.004;2022-11-30T14:44:50;48.10;;;29.73;;
33485;SDS011;19824;52.098;5.004;2022-11-30T14:49:51;49.03;;;28.50;;
33485;SDS011;19824;52.098;5.004;2022-11-30T14:52:27;55.13;;;30.45;;
33485;SDS011;19824;52.098;5.004;2022-11-30T14:55:19;49.42;;;29.27;;
33485;SDS011;19824;52.098;5.004;2022-11-30T14:57:58;49.15;;;29.23;;
33485;SDS011;19824;52.098;5.004;2022-11-30T15:00:43;52.30;;;30.27;;
33485;SDS011;19824;52.098;5.004;2022-11-30T15:03:17;50.72;;;30.70;;
33485;SDS011;19824;52.098;5.004;2022-11-30T15:05:52;50.22;;;30.33;;
33485;SDS011;19824;52.098;5.004;2022-11-30T15:08:24;51.08;;;31.45;;
33485;SDS011;19824;52.098;5.004;2022-11-30T15:11:02;50.97;;;30.65;;
33485;SDS011;19824;52.098;5.004;2022-11-30T15:16:13;50.85;;;29.80;;
33485;SDS011;19824;52.098;5.004;2022-11-30T15:18:47;53.53;;;30.58;;
33485;SDS011;19824;52.098;5.004;2022-11-30T15:21:17;54.22;;;29.80;;
33485;SDS011;19824;52.098;5.004;2022-11-30T15:23:49;50.35;;;29.83;;
33485;SDS011;19824;52.098;5.004;2022-11-30T15:26:19;53.53;;;31.52;;
33485;SDS011;19824;52.098;5.004;2022-11-30T15:28:54;54.42;;;31.50;;